Louis, Missouri
Current Conditions -  °F | °C
As of 4:53 PM on Friday 28 Nov 2014 (Local Time) from KCPS Reporting Station
Clear Clear  
Wind Chill: 42°   Ceiling: Unl
Heat Index: 47°   Visibility: 10mi
Dew Point: 34°   Wind: 12mph
Humidity: 61%   Direction: 170°S
Pressure: 29.95"   Gusts: NA
Location:  38.6578°N, 90.2474°W
Report Text: KCPS 282253Z 17010KT 10SM CLR 08/01 A2995 RMK AO2 SLP146 T00830011
Loading
Personal Weather Stations






























Interactive Weather Map New forecast layout! Learn more

10-Day Weather Forecast

Advertisements
Track Severe Weather on mobile